Latest Weather Observations for Millendon (Swan Valley)

IDW60801

Issued at 6:53 pm WST Thursday 17 January 2019 (issued every 10 minutes, with the page automatically refreshed every 10 minutes)

About weather observations | Map of weather stations | Latest weather observations for WA | Other Formats
Station Details ID: 009281 Name: MILLENDON (SWAN VALLEY) Lat: -31.81 Lon: 116.02 Height: 16.0 m
Data from the previous 72 hours. | See also: Recent months at Millendon (Swan Valley)
Date/Time
WST
Temp
°C
App
Temp
°C
Dew
Point
°C
Rel
Hum
%
Delta-T
°C
Wind Press
QNH
hPa
Press
MSL
hPa
Rain since
9am
mm
Dir  Spd
km/h
Gust
km/h
Spd
kts
Gust
kts
17/06:30pm 23.1 21.8 14.7 59 5.0 SW 15 30 8 16 - - 0.0
17/06:00pm 23.9 22.3 14.9 57 5.4 SW 17 28 9 15 - - 0.0
17/05:30pm 24.3 22.5 14.4 54 5.9 SW 17 28 9 15 - - 0.0
17/05:00pm 24.4 21.9 14.2 53 6.0 SW 20 33 11 18 - - 0.0
17/04:30pm 24.9 22.2 13.5 49 6.7 SW 20 32 11 17 - - 0.0
17/04:00pm 25.1 22.5 13.3 48 6.9 SW 19 35 10 19 - - 0.0
17/03:30pm 25.4 22.6 14.2 50 6.6 SW 22 35 12 19 - - 0.0
17/03:00pm 25.4 22.9 14.2 50 6.6 SW 20 37 11 20 - - 0.0
17/02:30pm 25.7 23.3 14.5 50 6.7 SW 20 30 11 16 - - 0.0
17/02:00pm 26.8 24.3 15.2 49 7.0 WSW 22 35 12 19 - - 0.0
17/01:30pm 27.2 25.9 14.9 47 7.4 WSW 15 24 8 13 - - 0.0
17/01:00pm 27.3 25.6 13.6 43 8.1 SW 15 22 8 12 - - 0.0
17/12:30pm 27.0 25.6 13.4 43 8.0 SW 13 22 7 12 - - 0.0
17/12:00pm 27.0 25.7 13.7 44 7.9 SSW 13 24 7 13 - - 0.0
17/11:30am 26.4 24.5 11.7 40 8.4 SW 13 22 7 12 - - 0.0
17/11:00am 25.0 23.5 11.9 44 7.5 SW 11 20 6 11 - - 0.0
17/10:30am 24.7 23.3 12.3 46 7.1 SW 11 20 6 11 - - 0.0
17/10:00am 23.1 22.5 12.4 51 6.1 SSW 7 19 4 10 - - 0.0
17/09:30am 22.6 22.1 12.8 54 5.6 SSW 7 17 4 9 - - 0.0
17/09:00am 21.6 20.7 12.5 56 5.2 SSW 9 17 5 9 - - 0.0
17/08:30am 21.2 20.5 13.1 60 4.6 SSW 9 19 5 10 - - 0.0
17/08:00am 20.3 19.1 12.8 62 4.2 SSW 11 17 6 9 - - 0.0
17/07:30am 18.8 17.9 12.5 67 3.5 SSW 9 15 5 8 - - 0.0
17/07:00am 17.1 16.7 12.4 74 2.6 S 6 13 3 7 - - 0.0
17/06:30am 14.1 15.0 12.8 92 0.7 CALM 0 2 0 1 - - 0.0
17/06:00am 13.6 13.9 12.3 92 0.7 S 2 2 1 1 - - 0.0
17/05:30am 13.6 14.2 12.0 90 0.9 CALM 0 0 0 0 - - 0.0
17/05:00am 14.3 14.2 12.2 87 1.1 S 4 6 2 3 - - 0.0
17/04:30am 14.8 14.4 12.5 86 1.3 S 6 7 3 4 - - 0.0
17/04:00am 15.3 15.0 12.6 84 1.5 SSW 6 9 3 5 - - 0.0
17/03:30am 15.8 15.6 12.9 83 1.6 SSW 6 9 3 5 - - 0.0
17/03:00am 16.1 15.4 13.2 83 1.6 SSW 9 17 5 9 - - 0.0
17/02:30am 16.4 15.8 13.5 83 1.6 SSW 9 17 5 9 - - 0.0
17/02:00am 16.3 16.7 13.6 84 1.5 SSW 4 9 2 5 - - 0.0
17/01:30am 16.6 16.4 13.7 83 1.6 SSW 7 11 4 6 - - 0.0
17/01:00am 16.3 16.6 13.4 83 1.6 SSW 4 9 2 5 - - 0.0
17/12:30am 16.8 16.8 13.5 81 1.9 SSW 6 11 3 6 - - 0.0
17/12:00am 17.1 17.4 13.4 79 2.1 S 4 7 2 4 - - 0.0
 
Date/Time
WST
Temp
°C
App
Temp
°C
Dew
Point
°C
Rel
Hum
%
Delta-T
°C
Wind Press
QNH
hPa
Press
MSL
hPa
Rain since
9am
mm
Dir  Spd
km/h
Gust
km/h
Spd
kts
Gust
kts
16/11:30pm 17.6 17.6 13.5 77 2.3 S 6 9 3 5 - - 0.0
16/11:00pm 18.0 17.4 13.5 75 2.5 SSW 9 17 5 9 - - 0.0
16/10:30pm 18.4 17.7 13.3 72 2.9 SSW 9 17 5 9 - - 0.0
16/10:00pm 18.6 17.5 13.0 70 3.2 SSW 11 19 6 10 - - 0.0
16/09:30pm 18.9 18.5 13.1 69 3.3 SSW 7 15 4 8 - - 0.0
16/09:00pm 19.1 18.4 13.1 68 3.4 SSW 9 15 5 8 - - 0.0
16/08:30pm 19.6 18.8 12.8 65 3.8 SSW 9 19 5 10 - - 0.0
16/08:00pm 20.1 18.8 12.6 62 4.2 SW 11 20 6 11 - - 0.0
16/07:30pm 20.8 19.0 12.2 58 4.8 SW 13 24 7 13 - - 0.0
16/07:00pm 21.8 19.9 12.9 57 5.1 SW 15 20 8 11 - - 0.0
16/06:30pm 22.6 20.3 13.1 55 5.5 SW 17 30 9 16 - - 0.0
16/06:00pm 23.7 21.5 13.3 52 6.0 SW 17 26 9 14 - - 0.0
16/05:30pm 24.3 21.3 12.6 48 6.7 SW 20 39 11 21 - - 0.0
16/05:00pm 24.7 22.0 13.0 48 6.8 SW 19 30 10 16 - - 0.0
16/04:30pm 25.5 22.8 13.0 46 7.3 SW 19 35 10 19 - - 0.0
16/04:00pm 25.9 22.7 13.1 45 7.5 SW 22 35 12 19 - - 0.0
16/03:30pm 26.1 22.9 13.2 44 7.5 SW 22 39 12 21 - - 0.0
16/03:00pm 26.1 22.5 13.2 44 7.6 SW 24 39 13 21 - - 0.0
16/02:30pm 26.7 23.3 13.8 45 7.6 WSW 24 39 13 21 - - 0.0
16/02:00pm 27.2 24.4 14.2 44 7.8 SW 22 35 12 19 - - 0.0
16/01:30pm 27.4 24.8 13.7 43 8.1 SW 20 30 11 16 - - 0.0
16/01:00pm 28.0 25.2 14.3 43 8.2 SW 22 32 12 17 - - 0.0
16/12:30pm 29.5 28.7 12.9 36 9.8 SW 9 19 5 10 - - 0.0
16/12:00pm 28.9 27.9 12.3 36 9.7 WSW 9 20 5 11 - - 0.0
16/11:30am 28.3 27.5 13.0 39 9.0 WSW 9 20 5 11 - - 0.0
16/11:00am 26.9 25.7 12.9 42 8.2 SW 11 22 6 12 - - 0.0
16/10:30am 25.2 24.2 12.4 45 7.4 S 9 19 5 10 - - 0.0
16/10:00am 24.4 23.4 12.4 47 6.9 SW 9 22 5 12 - - 0.0
16/09:30am 23.6 23.2 12.3 49 6.4 S 6 13 3 7 - - 0.0
16/09:00am 22.3 21.8 12.0 52 5.8 S 6 13 3 7 - - 0.0
16/08:30am 22.1 21.7 12.4 54 5.5 ESE 6 7 3 4 - - 0.0
16/08:00am 20.4 19.9 11.9 58 4.7 SSE 6 11 3 6 - - 0.0
16/07:30am 19.5 18.7 11.8 61 4.3 SSE 7 15 4 8 - - 0.0
16/07:00am 18.3 18.1 11.8 66 3.6 SSE 4 9 2 5 - - 0.0
16/06:30am 15.5 15.7 11.9 79 2.0 S 2 6 1 3 - - 0.0
16/06:00am 14.6 14.4 11.9 84 1.5 SSE 4 6 2 3 - - 0.0
16/05:30am 14.3 14.4 11.6 84 1.4 S 2 4 1 2 - - 0.0
16/05:00am 13.8 14.3 11.5 86 1.2 CALM 0 6 0 3 - - 0.0
16/04:30am 13.7 13.8 11.6 87 1.1 SSW 2 6 1 3 - - 0.0
16/04:00am 14.2 14.7 11.7 85 1.3 CALM 0 0 0 0 - - 0.0
16/03:30am 14.7 15.2 11.7 82 1.6 CALM 0 0 0 0 - - 0.0
16/03:00am 15.1 15.5 11.3 78 2.0 CALM 0 0 0 0 - - 0.0
16/02:30am 16.3 16.9 11.9 75 2.4 CALM 0 0 0 0 - - 0.0
16/02:00am 17.1 16.8 11.6 70 3.0 S 4 7 2 4 - - 0.0
16/01:30am 18.0 17.4 11.8 67 3.4 SSW 6 9 3 5 - - 0.0
16/01:00am 18.4 17.9 11.9 66 3.6 SSW 6 13 3 7 - - 0.0
16/12:30am 19.1 18.0 12.1 64 3.9 SSW 9 17 5 9 - - 0.0
16/12:00am 19.3 18.8 12.8 66 3.7 SSW 7 17 4 9 - - 0.0
 
Date/Time
WST
Temp
°C
App
Temp
°C
Dew
Point
°C
Rel
Hum
%
Delta-T
°C
Wind Press
QNH
hPa
Press
MSL
hPa
Rain since
9am
mm
Dir  Spd
km/h
Gust
km/h
Spd
kts
Gust
kts
15/11:30pm 18.8 19.3 13.9 73 2.8 SSW 4 7 2 4 - - 0.0
15/11:00pm 18.9 19.5 14.2 74 2.7 SSW 4 6 2 3 - - 0.0
15/10:30pm 19.1 19.8 14.4 74 2.7 SSW 4 6 2 3 - - 0.0
15/10:00pm 19.6 20.3 14.6 73 2.9 SSW 4 6 2 3 - - 0.0
15/09:30pm 20.0 20.3 14.6 71 3.1 SSW 6 7 3 4 - - 0.0
15/09:00pm 20.3 20.6 14.4 69 3.4 SSW 6 11 3 6 - - 0.0
15/08:30pm 20.7 20.8 14.4 67 3.7 SSW 7 15 4 8 - - 0.0
15/08:00pm 21.0 21.1 14.4 66 3.9 SSW 7 13 4 7 - - 0.0
15/07:30pm 21.8 20.7 14.4 63 4.3 SW 13 20 7 11 - - 0.0
15/07:00pm 23.0 22.0 14.6 59 5.0 SW 13 20 7 11 - - 0.0
15/06:30pm 23.9 22.2 14.6 56 5.5 SW 17 28 9 15 - - 0.0
15/06:00pm 24.8 23.4 14.6 53 6.1 SW 15 22 8 12 - - 0.0
15/05:30pm 25.6 23.4 14.4 50 6.7 SW 19 30 10 16 - - 0.0
15/05:00pm 26.2 23.8 14.3 48 7.1 SW 20 32 11 17 - - 0.0
15/04:30pm 27.0 24.8 14.4 46 7.5 SW 19 32 10 17 - - 0.0
15/04:00pm 28.0 26.3 14.6 44 8.1 SW 17 35 9 19 - - 0.0
15/03:30pm 27.7 25.5 14.3 43 8.0 SW 19 30 10 16 - - 0.0
15/03:00pm 28.0 25.7 14.6 44 8.1 SSW 20 30 11 16 - - 0.0
15/02:30pm 29.2 27.2 15.0 42 8.7 SW 19 30 10 16 - - 0.0
15/02:00pm 29.3 26.1 14.3 40 9.1 SW 24 33 13 18 - - 0.0
15/01:30pm 30.5 28.2 11.9 31 10.9 SSW 15 26 8 14 - - 0.0
15/01:00pm 30.0 28.5 12.0 33 10.5 SSW 11 22 6 12 - - 0.0
15/12:30pm 29.9 29.1 12.8 35 10.1 SW 9 17 5 9 - - 0.0
15/12:00pm 28.5 28.0 12.0 36 9.6 SE 6 15 3 8 - - 0.0
15/11:30am 27.5 26.9 12.3 39 8.8 SSW 7 13 4 7 - - 0.0
15/11:00am 27.0 26.7 12.6 41 8.4 SSE 6 15 3 8 - - 0.0
15/10:30am 25.9 25.4 12.0 42 8.0 E 6 9 3 5 - - 0.0
15/10:00am 25.1 24.6 12.0 44 7.5 SSE 6 17 3 9 - - 0.0
15/09:30am 23.7 22.9 11.7 47 6.8 SE 7 15 4 8 - - 0.0
15/09:00am 22.9 22.2 11.9 50 6.2 ESE 7 15 4 8 - - 0.0
15/08:30am 21.6 20.7 11.3 52 5.7 ESE 7 19 4 10 - - 0.0
15/08:00am 21.0 20.1 11.3 54 5.4 E 7 17 4 9 - - 0.0
15/07:30am 19.4 18.5 11.2 59 4.5 SE 7 19 4 10 - - 0.0
15/07:00am 18.5 17.5 11.1 62 4.0 ESE 7 13 4 7 - - 0.0
15/06:30am 17.4 16.6 11.0 66 3.4 SE 6 11 3 6 - - 0.0
15/06:00am 16.9 16.0 10.7 67 3.3 ESE 6 9 3 5 - - 0.0
15/05:30am 17.3 16.2 10.7 65 3.5 SE 7 19 4 10 - - 0.0
15/05:00am 17.8 17.3 10.9 64 3.7 SSE 4 15 2 8 - - 0.0
15/04:30am 17.9 17.4 10.8 63 3.8 SSE 4 13 2 7 - - 0.0
15/04:00am 17.9 17.1 11.2 65 3.6 S 6 13 3 7 - - 0.0
15/03:30am 15.0 15.0 12.5 85 1.4 S 4 9 2 5 - - 0.0
15/03:00am 14.7 15.5 12.7 88 1.1 CALM 0 0 0 0 - - 0.0
15/02:30am 15.1 15.9 12.4 84 1.5 CALM 0 0 0 0 - - 0.0
15/02:00am 16.5 17.3 13.6 83 1.6 S 2 4 1 2 - - 0.0
15/01:30am 16.6 17.8 13.9 84 1.5 CALM 0 0 0 0 - - 0.0
15/01:00am 17.3 18.6 14.0 81 1.9 CALM 0 0 0 0 - - 0.0
15/12:30am 18.3 18.8 14.0 76 2.5 SSE 4 7 2 4 - - 0.0
15/12:00am 18.8 19.6 14.7 77 2.4 S 4 6 2 3 - - 0.0
 
Date/Time
WST
Temp
°C
App
Temp
°C
Dew
Point
°C
Rel
Hum
%
Delta-T
°C
Wind Press
QNH
hPa
Press
MSL
hPa
Rain since
9am
mm
Dir  Spd
km/h
Gust
km/h
Spd
kts
Gust
kts
14/11:30pm 19.3 20.2 15.2 77 2.4 SSW 4 11 2 6 - - 0.0
14/11:00pm 18.9 20.7 15.4 80 2.1 CALM 0 4 0 2 - - 0.0
14/10:30pm 19.5 20.6 15.6 78 2.3 SSW 4 6 2 3 - - 0.0
14/10:00pm 20.0 20.6 15.4 75 2.7 SSW 6 9 3 5 - - 0.0
14/09:30pm 20.0 20.3 14.4 70 3.3 SSW 6 9 3 5 - - 0.0
14/09:00pm 20.6 20.7 14.5 68 3.6 SSW 7 11 4 6 - - 0.0
14/08:30pm 21.1 21.2 14.5 66 3.9 SW 7 13 4 7 - - 0.0
14/08:00pm 21.6 21.6 14.3 63 4.3 SW 7 9 4 5 - - 0.0
14/07:30pm 22.1 22.2 14.5 62 4.5 SSW 7 13 4 7 - - 0.0
14/07:00pm 23.1 22.4 14.4 58 5.1 SSW 11 22 6 12 - - 0.0

Other Formats:

Comma delimited format used in spreadsheet applications
http://www.bom.gov.au/fwo/IDW60801/IDW60801.94795.axf

JavaScript Object Notation format (JSON) in row-major order
http://www.bom.gov.au/fwo/IDW60801/IDW60801.94795.json